M I D A S
Marine Information and Data Acquisition System
Tripno 705 of the Zeeleeuw from 2004-05-03 06:37:17 to 2004-05-03 13:20:30
Back to CruiseResearch ActivitiesStationsMapUnderway DataData graphs

EquipmentUnitsComment
TimeDGPSUTC
LatitudeDGPSDM.mWGS84
LongitudeDGPSDM.mWGS84
TemperatureSBE03/SBE38deg celciusITS90
ConductivitySBE21S/mITS90
SalinitySBE21 Practical Salinity Units
ChlorophylAChelsea fluorimeterg/lCalibrated in Aceton
Missing or incorrect values are displayed as -999
Sea surface data collected by the RV Zeeleeuw from 2004-05-03 06:37:17 to 2004-05-03 13:20:30
Time Latitude Longitude Temperature Conductivity Salinity ChlorophylA
2004-05-03 06:38:20 51°13.599 2°56.088 18.506251 4.141565 26.85382 0.263742
2004-05-03 06:39:21 51°13.627 2°55.999 18.563563 4.141143 26.854341 0.297452
2004-05-03 06:40:21 51°13.663 2°55.874 18.595773 4.140616 26.854102 0.263742
2004-05-03 06:41:20 51°13.675 2°55.754 18.606878 4.1403 26.854988 0.263742
2004-05-03 06:42:20 51°13.702 2°55.752 13.514701 3.647087 27.928331 68.221896
2004-05-03 06:43:20 51°13.782 2°55.682 13.591285 3.344445 27.304921 68.120768
2004-05-03 06:44:20 51°13.881 2°55.596 13.394961 3.209642 26.136236 68.120768
2004-05-03 06:45:20 51°13.997 2°55.515 13.135069 3.488237 28.862722 68.154477
2004-05-03 06:46:20 51°14.132 2°55.419 13.123752 3.559249 29.633351 68.120768
2004-05-03 06:47:20 51°14.264 2°55.264 13.1157 3.534595 29.394907 68.154477
2004-05-03 06:48:20 51°14.39 2°55.026 13.032388 3.514472 29.260412 68.154477
2004-05-03 06:49:20 51°14.455 2°54.686 12.771303 3.448735 28.750662 68.120768
2004-05-03 06:50:20 51°14.367 2°54.336 12.615567 3.661885 30.945186 68.087059
2004-05-03 06:51:20 51°14.254 2°53.997 12.58572 3.678536 31.174872 68.154477
2004-05-03 06:52:20 51°14.134 2°53.662 12.551753 3.676218 31.18461 68.120768
2004-05-03 06:53:20 51°14.021 2°53.316 12.512759 3.669158 31.129633 68.120768
2004-05-03 06:54:20 51°13.902 2°52.971 12.482097 3.688443 31.353762 68.154477
2004-05-03 06:55:20 51°13.782 2°52.623 12.49524 3.692027 31.407814 68.120768
2004-05-03 06:56:20 51°13.663 2°52.274 12.476948 3.678854 31.287144 68.120768
2004-05-03 06:57:20 51°13.544 2°51.923 12.458245 3.708151 31.575447 68.120768
2004-05-03 06:58:20 51°13.424 2°51.572 12.440531 3.690446 31.419589 68.154477
2004-05-03 06:59:20 51°13.307 2°51.22 12.420281 3.706887 31.596927 68.120768
2004-05-03 07:00:20 51°13.19 2°50.872 12.412775 3.710259 31.641393 68.154477
2004-05-03 07:01:18 51°13.076 2°50.534 12.420733 3.721009 31.746673 68.154477
2004-05-03 07:02:20 51°12.956 2°50.169 12.433571 3.715423 31.685765 68.120768
2004-05-03 07:03:20 51°12.839 2°49.816 12.432621 3.733971 31.852501 68.087059
2004-05-03 07:04:20 51°12.723 2°49.461 12.436599 3.732179 31.835499 68.120768
2004-05-03 07:05:20 51°12.606 2°49.107 12.432531 3.739767 31.908843 68.120768
2004-05-03 07:06:20 51°12.489 2°48.751 12.429141 3.735763 31.872817 68.120768
2004-05-03 07:07:20 51°12.368 2°48.399 12.413273 3.730599 31.833732 68.087059
2004-05-03 07:08:20 51°12.241 2°48.054 12.421953 3.715318 31.688719 68.120768
2004-05-03 07:09:20 51°12.115 2°47.709 12.424214 3.721114 31.741732 68.120768
2004-05-03 07:10:20 51°11.989 2°47.365 12.411781 3.740189 31.928775 68.087059
2004-05-03 07:11:20 51°11.864 2°47.02 12.401607 3.755155 32.08097 68.120768
2004-05-03 07:12:20 51°11.738 2°46.676 12.406581 3.754523 32.082302 68.087059
2004-05-03 07:13:20 51°11.613 2°46.335 12.41594 3.772123 32.239661 68.120768
2004-05-03 07:14:20 51°11.488 2°45.994 12.423038 3.760951 32.130067 68.120768
2004-05-03 07:15:20 51°11.364 2°45.652 12.440757 3.785508 32.354237 68.087059
2004-05-03 07:16:20 51°11.241 2°45.31 12.466784 3.779395 32.277286 68.053349
2004-05-03 07:17:21 51°11.135 2°44.947 12.501336 3.789934 32.353965 68.087059
2004-05-03 07:18:20 51°11.032 2°44.595 12.538171 3.801422 32.432187 68.120768
2004-05-03 07:19:20 51°10.928 2°44.238 12.572821 3.820815 32.585382 68.087059
2004-05-03 07:20:20 51°10.824 2°43.881 12.604207 3.842001 32.757491 68.087059
2004-05-03 07:21:21 51°10.719 2°43.521 12.629809 3.846427 32.775107 68.053349
2004-05-03 07:22:21 51°10.613 2°43.169 12.642021 3.867087 32.955609 68.053349
2004-05-03 07:23:20 51°10.513 2°42.821 12.650131 3.878049 33.051526 68.053349
2004-05-03 07:24:20 51°10.41 2°42.468 12.65815 3.881844 33.076627 68.053349
2004-05-03 07:25:20 51°10.305 2°42.118 12.664592 3.894704 33.19672 68.154477
2004-05-03 07:26:20 51°10.197 2°41.772 12.672069 3.902293 33.262649 68.120768
2004-05-03 07:27:20 51°10.1 2°41.42 12.661709 3.916419 33.391382 68.120768
2004-05-03 07:28:20 51°10.001 2°41.069 12.662655 3.922533 33.448817 68.053349
2004-05-03 07:29:20 51°9.902 2°40.719 12.666799 3.937186 33.597202 68.087059
2004-05-03 07:30:20 51°9.824 2°40.355 12.666123 3.940454 33.627608 68.087059
2004-05-03 07:31:20 51°9.745 2°39.99 12.672294 3.946146 33.674832 68.120768
2004-05-03 07:32:20 51°9.667 2°39.627 12.6736 3.957004 33.776803 68.120768
2004-05-03 07:33:20 51°9.59 2°39.263 12.660628 3.949941 33.712348 68.120768
2004-05-03 07:34:20 51°9.51 2°38.899 12.638462 3.94193 33.650001 68.087059
2004-05-03 07:35:20 51°9.43 2°38.536 12.622103 3.942562 33.676914 68.154477
2004-05-03 07:36:20 51°9.351 2°38.171 12.636975 3.955845 33.809086 68.154477
2004-05-03 07:37:20 51°9.273 2°37.81 12.663871 3.961959 33.84427 68.255606
2004-05-03 07:38:20 51°9.197 2°37.449 12.679049 3.967125 33.878087 68.255606
2004-05-03 07:39:20 51°9.093 2°37.239 12.712455 3.969338 33.880271 68.188187
2004-05-03 07:40:20 51°9.039 2°37.174 12.759565 3.96997 33.84784 68.356734
2004-05-03 07:41:21 51°9.033 2°37.171 12.786412 3.970075 33.811876 68.154477
2004-05-03 07:42:20 51°9.072 2°37.121 12.803854 3.970707 33.804652 68.120768
2004-05-03 07:43:21 51°9.108 2°37.219 12.771978 3.972394 33.808139 68.154477
2004-05-03 07:44:20 51°9.101 2°37.254 12.748184 3.972395 33.844373 68.188187
2004-05-03 07:45:20 51°9.095 2°37.252 12.739276 3.970603 33.842686 68.188187
2004-05-03 07:46:21 51°9.088 2°37.253 12.734912 3.96997 33.845746 68.087059
2004-05-03 07:47:20 51°9.08 2°37.254 12.732212 3.970076 33.84605 68.053349
2004-05-03 07:48:20 51°9.071 2°37.254 12.748724 3.970497 33.845872 68.053349
2004-05-03 07:49:20 51°9.063 2°37.254 12.762534 3.970813 33.837015 68.120768
2004-05-03 07:50:21 51°9.053 2°37.254 12.767076 3.971024 33.832044 68.154477
2004-05-03 07:51:20 51°9.043 2°37.254 12.772608 3.97134 33.825289 68.120768
2004-05-03 07:52:20 51°9.034 2°37.255 12.774361 3.971235 33.825682 68.154477
2004-05-03 07:53:20 51°9.023 2°37.256 12.780927 3.971551 33.822414 68.120768
2004-05-03 07:54:20 51°9.013 2°37.255 12.785018 3.971551 33.819627 68.188187
2004-05-03 07:55:20 51°9.003 2°37.255 12.78322 3.971551 33.817537 68.154477
2004-05-03 07:56:20 51°8.992 2°37.253 12.781061 3.970918 33.810832 68.087059
2004-05-03 07:57:20 51°8.981 2°37.254 12.78331 3.970918 33.812225 68.120768
2004-05-03 07:58:20 51°8.97 2°37.253 12.784793 3.970813 33.809831 68.154477
2004-05-03 07:59:20 51°8.947 2°37.248 12.791223 3.971445 33.812357 68.188187
2004-05-03 08:00:20 51°8.919 2°37.218 12.800303 3.970707 33.802563 68.154477
2004-05-03 08:01:20 51°8.907 2°37.153 12.810641 3.970496 33.791514 68.188187
2004-05-03 08:02:21 51°8.939 2°37.098 12.82637 3.970918 33.783694 68.188187
2004-05-03 08:03:20 51°8.983 2°37.118 12.807271 3.971656 33.786527 68.154477
2004-05-03 08:04:20 51°9.023 2°37.181 12.785917 3.971129 33.800303 68.120768
2004-05-03 08:05:20 51°9.058 2°37.261 12.773327 3.97134 33.822502 68.154477
2004-05-03 08:06:20 51°9.085 2°37.338 12.761949 3.971867 33.833087 68.221896
2004-05-03 08:07:20 51°9.109 2°37.406 12.740041 3.973343 33.863164 63.738546
2004-05-03 08:08:20 51°9.135 2°37.466 12.729017 3.973344 33.87993 54.771845
2004-05-03 08:09:20 51°9.163 2°37.524 12.724202 3.973555 33.886131 48.333349
2004-05-03 08:10:20 51°9.19 2°37.581 12.718892 3.973344 33.889719 44.524187
2004-05-03 08:11:20 51°9.217 2°37.638 12.710115 3.973028 33.890906 42.906136
2004-05-03 08:12:20 51°9.241 2°37.701 12.70908 3.972501 33.890786 40.9847
2004-05-03 08:13:20 51°9.252 2°37.772 12.694179 3.97113 33.886137 45.973691
2004-05-03 08:14:20 51°9.249 2°37.847 12.689136 3.970392 33.88471 47.591742
2004-05-03 08:15:20 51°9.24 2°37.923 12.678689 3.969444 33.881974 48.737862
2004-05-03 08:16:20 51°9.235 2°37.998 12.676617 3.968284 33.880031 53.187503
2004-05-03 08:17:20 51°9.241 2°38.073 12.687245 3.967652 33.869107 50.153657
2004-05-03 08:18:20 51°9.248 2°38.149 12.686299 3.967019 33.857487 46.378204
2004-05-03 08:19:20 51°9.251 2°38.226 12.67977 3.965227 33.846017 50.052529
2004-05-03 08:20:20 51°9.249 2°38.302 12.665312 3.963119 33.833631 57.569725
2004-05-03 08:21:20 51°9.24 2°38.378 12.659817 3.960799 33.822728 64.918375
2004-05-03 08:22:20 51°9.225 2°38.451 12.66788 3.959851 33.809496 67.716255
2004-05-03 08:23:20 51°9.208 2°38.51 12.671258 3.958691 33.794959 68.491571
2004-05-03 08:24:20 51°9.188 2°38.554 12.678284 3.957531 33.779728 68.255606
2004-05-03 08:25:20 51°9.169 2°38.589 12.684498 3.956793 33.766422 68.221896
2004-05-03 08:26:20 51°9.152 2°38.619 12.690306 3.957004 33.762849 68.188187
2004-05-03 08:27:21 51°9.136 2°38.645 12.703228 3.956582 33.751864 68.154477
2004-05-03 08:28:20 51°9.12 2°38.703 12.708134 3.957004 33.744727 68.188187
2004-05-03 08:29:20 51°9.174 2°38.766 12.713491 3.955844 33.737178 68.120768
2004-05-03 08:30:20 51°9.242 2°38.635 12.719027 3.955422 33.725508 68.120768
2004-05-03 08:31:20 51°9.288 2°38.346 12.722267 3.957636 33.737511 68.188187
2004-05-03 08:32:20 51°9.275 2°37.995 12.720422 3.961326 33.778872 65.659982
2004-05-03 08:33:20 51°9.246 2°37.639 12.703408 3.967124 33.831936 55.749418
2004-05-03 08:34:20 51°9.214 2°37.284 12.692648 3.968916 33.865762 51.906546
2004-05-03 08:35:20 51°9.177 2°36.93 12.672024 3.968389 33.871936 47.18723
2004-05-03 08:36:20 51°9.124 2°36.578 12.671888 3.969022 33.884959 42.973554
2004-05-03 08:37:20 51°9.063 2°36.23 12.689451 3.971868 33.912071 37.00699
2004-05-03 08:38:20 51°8.983 2°35.889 12.705839 3.976401 33.940529 30.534785
2004-05-03 08:39:20 51°8.905 2°35.548 12.735272 3.981672 33.970386 28.57964
2004-05-03 08:40:20 51°8.829 2°35.211 12.74688 3.987786 34.007545 28.984153
2004-05-03 08:41:20 51°8.761 2°34.908 12.750164 3.991687 34.03554 31.37752
2004-05-03 08:42:18 51°8.699 2°34.622 12.761409 3.995377 34.069247 31.242683
2004-05-03 08:43:20 51°8.632 2°34.317 12.773642 3.990527 34.016791 30.399947
2004-05-03 08:44:20 51°8.566 2°34.025 12.784793 3.99137 34.007289 29.422375
2004-05-03 08:45:20 51°8.5 2°33.734 12.774856 3.993268 34.023229 32.355093
2004-05-03 08:46:20 51°8.413 2°33.464 12.786547 3.996536 34.066937 34.984426
2004-05-03 08:47:20 51°8.289 2°33.289 12.854807 4.000015 34.056519 28.107708
2004-05-03 08:48:20 51°8.21 2°33.198 12.868235 4.00265 34.040235 38.523913
2004-05-03 08:49:20 51°8.158 2°33.161 12.882424 4.003915 34.044546 38.220529
2004-05-03 08:50:20 51°8.135 2°33.125 12.903791 4.006129 34.050864 39.198101
2004-05-03 08:51:20 51°8.129 2°33.093 12.922549 4.008448 34.053287 39.771161
2004-05-03 08:52:20 51°8.131 2°33.066 12.921697 4.010556 34.0593 45.164665
2004-05-03 08:53:20 51°8.134 2°33.041 12.930131 4.010451 34.062493 51.164939
2004-05-03 08:54:20 51°8.134 2°33.02 12.955834 4.012032 34.06211 49.176084
2004-05-03 08:55:20 51°8.134 2°33.01 12.970766 4.013929 34.062631 49.546888
2004-05-03 08:56:20 51°8.135 2°33.006 12.97108 4.01551 34.067138 50.052529
2004-05-03 08:57:20 51°8.136 2°33.009 12.970945 4.01551 34.06993 49.209794
2004-05-03 08:58:20 51°8.137 2°33.018 12.980674 4.016775 34.072836 54.131366
2004-05-03 08:59:20 51°8.138 2°33.031 12.966641 4.016565 34.073631 54.535879
2004-05-03 09:00:20 51°8.14 2°33.047 12.967134 4.008974 34.011523 56.356187
2004-05-03 09:01:20 51°8.142 2°33.068 12.976191 4.016038 34.072827 56.558443
2004-05-03 09:02:20 51°8.143 2°33.091 12.968569 4.016776 34.07842 59.086648
2004-05-03 09:03:20 51°8.146 2°33.118 12.972873 4.016354 34.075124 58.614717
2004-05-03 09:04:20 51°8.113 2°33.124 12.972335 4.016354 34.07303 59.895674
2004-05-03 09:05:20 51°8.064 2°33.07 12.964175 4.015932 34.071131 52.108802
2004-05-03 09:06:20 51°8.026 2°33.017 12.947806 4.014456 34.069719 50.119947
2004-05-03 09:07:20 51°7.994 2°32.971 12.93538 4.013508 34.074699 50.254785
2004-05-03 09:08:20 51°7.967 2°32.928 12.928382 4.013402 34.084184 46.513042
2004-05-03 09:09:20 51°7.944 2°32.886 12.927574 4.013719 34.091377 41.288084
2004-05-03 09:10:20 51°7.922 2°32.837 12.950631 4.015827 34.097377 37.714888
2004-05-03 09:11:20 51°7.898 2°32.772 12.941033 4.018463 34.113963 34.849589
2004-05-03 09:12:20 51°7.878 2°32.697 12.920306 4.018252 34.127356 31.006717
2004-05-03 09:13:20 51°7.855 2°32.627 12.907471 4.017514 34.137866 27.46723
2004-05-03 09:14:20 51°7.824 2°32.565 12.888979 4.018042 34.149874 22.747913
2004-05-03 09:15:20 51°7.8 2°32.495 12.876318 4.01762 34.161301 21.80405
2004-05-03 09:16:20 51°7.779 2°32.423 12.857188 4.017093 34.171739 23.658067
2004-05-03 09:17:20 51°7.756 2°32.351 12.816304 4.016777 34.19333 25.478375
2004-05-03 09:18:20 51°7.735 2°32.284 12.758081 4.014353 34.216739 29.961725
2004-05-03 09:19:20 51°7.715 2°32.22 12.733967 4.011296 34.225725 30.399947
2004-05-03 09:20:20 51°7.699 2°32.155 12.724427 4.010558 34.229992 29.1527
2004-05-03 09:21:20 51°7.687 2°32.086 12.741301 4.009715 34.229726 27.46723
2004-05-03 09:22:20 51°7.682 2°32.015 12.751198 4.010453 34.212048 24.703059
2004-05-03 09:23:20 51°7.685 2°31.941 12.728117 4.00729 34.198154 24.298546
2004-05-03 09:24:20 51°7.695 2°31.867 12.725732 4.005393 34.189954 23.691777
2004-05-03 09:25:20 51°7.693 2°31.796 12.752863 4.002862 34.158096 21.905178
2004-05-03 09:26:20 51°7.684 2°31.727 12.723482 4.000964 34.128053 18.365691
2004-05-03 09:27:20 51°7.689 2°31.654 12.654501 3.997486 34.149877 20.792768
2004-05-03 09:28:20 51°7.72 2°31.591 12.64112 3.989685 34.107929 20.084871
2004-05-03 09:29:21 51°7.774 2°31.552 12.627376 3.9958 34.178996 16.477965
2004-05-03 09:30:20 51°7.84 2°31.536 12.6061 3.999912 34.243052 14.590238
2004-05-03 09:31:20 51°7.906 2°31.545 12.585088 4.000123 34.252161 13.34299
2004-05-03 09:32:20 51°7.965 2°31.578 12.517815 3.997593 34.271292 12.80364
2004-05-03 09:33:20 51°8.017 2°31.623 12.468094 3.993588 34.286316 13.34299
2004-05-03 09:34:20 51°8.065 2°31.669 12.425886 3.991269 34.289749 13.107024
2004-05-03 09:35:20 51°8.108 2°31.712 12.353202 3.987158 34.313861 14.623947
2004-05-03 09:36:20 51°8.147 2°31.75 12.286735 3.982415 34.324111 18.466819
2004-05-03 09:37:20 51°8.181 2°31.783 12.23802 3.97725 34.338975 22.107435
2004-05-03 09:38:20 51°8.212 2°31.815 12.202787 3.973667 34.346135 25.040153
2004-05-03 09:39:20 51°8.241 2°31.848 12.192898 3.968607 34.312431 23.759195
2004-05-03 09:40:20 51°8.267 2°31.879 12.190721 3.97198 34.349302 21.905178
2004-05-03 09:41:20 51°8.293 2°31.911 12.19376 3.971558 34.343072 21.534375
2004-05-03 09:42:20 51°8.318 2°31.944 12.202242 3.971769 34.342946 21.466956
2004-05-03 09:43:20 51°8.343 2°31.978 12.204329 3.972296 34.340832 21.129862
2004-05-03 09:44:20 51°8.366 2°32.013 12.198977 3.972085 34.344558 23.691777
2004-05-03 09:45:20 51°8.391 2°32.048 12.191809 3.971242 34.3393 25.882888
2004-05-03 09:46:20 51°8.414 2°32.082 12.209272 3.971558 34.339472 25.343537
2004-05-03 09:47:21 51°8.438 2°32.118 12.224736 3.972929 34.3347 24.365965
2004-05-03 09:48:20 51°8.461 2°32.154 12.23122 3.973561 34.334325 23.152426
2004-05-03 09:49:20 51°8.484 2°32.191 12.234801 3.973877 34.33234 23.422101
2004-05-03 09:50:20 51°8.508 2°32.228 12.235118 3.974299 34.335687 24.028871
2004-05-03 09:51:21 51°8.531 2°32.265 12.241782 3.97451 34.332686 24.129999
2004-05-03 09:52:20 51°8.554 2°32.302 12.24559 3.975248 34.336204 24.770477
2004-05-03 09:53:21 51°8.578 2°32.34 12.253703 3.975353 34.334345 25.680631
2004-05-03 09:54:20 51°8.6 2°32.378 12.302724 3.977145 34.327184 23.354683
2004-05-03 09:55:20 51°8.624 2°32.417 12.353157 3.981993 34.322922 19.478101
2004-05-03 09:56:20 51°8.649 2°32.456 12.37759 3.984839 34.31877 19.242136
2004-05-03 09:57:20 51°8.675 2°32.495 12.432124 3.986842 34.312253 17.927469
2004-05-03 09:58:20 51°8.7 2°32.534 12.46195 3.990637 34.303664 15.567811
2004-05-03 09:59:20 51°8.727 2°32.573 12.501923 3.993272 34.296829 13.814922
2004-05-03 10:00:21 51°8.754 2°32.613 12.49682 3.995064 34.294044 13.410409
2004-05-03 10:01:20 51°8.78 2°32.651 12.490724 3.994642 34.295705 15.129589
2004-05-03 10:02:20 51°8.808 2°32.691 12.502871 3.993693 34.288751 16.781349
2004-05-03 10:03:18 51°8.834 2°32.729 12.525308 3.995275 34.284667 17.28699
2004-05-03 10:04:19 51°8.862 2°32.77 12.553152 3.997383 34.281365 16.74764
2004-05-03 10:05:20 51°8.89 2°32.811 12.547241 3.997804 34.27331 18.298272
2004-05-03 10:06:21 51°8.917 2°32.852 12.530183 3.996645 34.277859 19.039879
2004-05-03 10:07:20 51°8.944 2°32.892 12.525669 3.995591 34.276305 19.410683
2004-05-03 10:08:20 51°8.97 2°32.935 12.520794 3.995485 34.275296 19.714067
2004-05-03 10:09:21 51°8.998 2°32.979 12.534967 3.995274 34.276124 20.455674
2004-05-03 10:10:21 51°9.025 2°33.023 12.538171 3.996328 34.269852 19.00617
2004-05-03 10:11:20 51°9.052 2°33.066 12.53957 3.996961 34.273772 19.039879
2004-05-03 10:12:20 51°9.079 2°33.109 12.554054 3.997066 34.272648 18.905042
2004-05-03 10:13:20 51°9.106 2°33.154 12.529596 3.998015 34.276038 17.927469
2004-05-03 10:14:20 51°9.132 2°33.198 12.49262 3.995485 34.290247 19.747777
2004-05-03 10:15:20 51°9.158 2°33.242 12.475006 3.993272 34.291838 19.646648
2004-05-03 10:16:20 51°9.184 2°33.285 12.460143 3.992218 34.29528 20.421965
2004-05-03 10:17:20 51°9.21 2°33.328 12.462221 3.991796 34.29623 21.770341
2004-05-03 10:18:20 51°9.236 2°33.371 12.46448 3.991269 34.294743 21.871469
2004-05-03 10:19:20 51°9.261 2°33.414 12.441525 3.991375 34.298608 21.837759
2004-05-03 10:20:21 51°9.286 2°33.456 12.419286 3.990004 34.304022 23.186136
2004-05-03 10:21:20 51°9.31 2°33.497 12.420371 3.98895 34.304619 23.017589
2004-05-03 10:22:20 51°9.336 2°33.538 12.405857 3.988212 34.310398 23.118717
2004-05-03 10:23:20 51°9.359 2°33.576 12.404184 3.987685 34.308912 24.028871
2004-05-03 10:24:20 51°9.381 2°33.611 12.402014 3.98758 34.310044 24.399674
2004-05-03 10:25:21 51°9.401 2°33.645 12.369808 3.987264 34.316304 21.669212
2004-05-03 10:26:20 51°9.419 2°33.678 12.339579 3.984945 34.32408 20.253418
2004-05-03 10:27:20 51°9.436 2°33.712 12.306936 3.98231 34.32955 18.500529
2004-05-03 10:28:20 51°9.453 2°33.748 12.282658 3.979253 34.328104 17.489247
2004-05-03 10:29:20 51°9.471 2°33.785 12.27337 3.978199 34.328003 16.71393
2004-05-03 10:30:20 51°9.487 2°33.822 12.267072 3.977356 34.327779 16.241999
2004-05-03 10:31:20 51°9.504 2°33.86 12.272781 3.976618 34.327134 15.668939
2004-05-03 10:32:20 51°9.521 2°33.898 12.285421 3.978093 34.329859 15.837486
2004-05-03 10:33:20 51°9.539 2°33.939 12.276406 3.97841 34.330033 15.803777
2004-05-03 10:34:21 51°9.557 2°33.98 12.257873 3.970819 34.269851 15.60152
2004-05-03 10:35:20 51°9.575 2°34.02 12.240015 3.973877 34.312218 16.646512
2004-05-03 10:36:20 51°9.593 2°34.06 12.230222 3.966814 34.262817 16.815059
2004-05-03 10:37:20 51°9.611 2°34.1 12.209454 3.971453 34.319028 18.298272
2004-05-03 10:38:20 51°9.629 2°34.139 12.20061 3.966814 34.28939 20.11858
2004-05-03 10:39:20 51°9.647 2°34.177 12.187817 3.970609 34.327438 21.399537
2004-05-03 10:40:21 51°9.666 2°34.217 12.183552 3.962703 34.266976 23.860324
2004-05-03 10:41:20 51°9.683 2°34.256 12.177246 3.964495 34.288584 23.118717
2004-05-03 10:42:21 51°9.701 2°34.296 12.167535 3.962598 34.275305 24.500802
2004-05-03 10:43:20 51°9.718 2°34.337 12.172617 3.966077 34.315364 25.276118
2004-05-03 10:44:20 51°9.735 2°34.379 12.173389 3.967763 34.324446 23.287264
2004-05-03 10:45:20 51°9.752 2°34.422 12.192218 3.967869 34.323303 23.691777
2004-05-03 10:46:20 51°9.769 2°34.467 12.199838 3.969766 34.327218 21.837759
2004-05-03 10:47:21 51°9.786 2°34.511 12.183099 3.970293 34.327986 22.444529
2004-05-03 10:48:20 51°9.81 2°34.554 12.183462 3.968501 34.327249 24.264836
2004-05-03 10:49:20 51°9.843 2°34.603 12.158821 3.967869 34.328345 26.523366
2004-05-03 10:50:20 51°9.876 2°34.67 12.143388 3.965234 34.322347 31.107845
2004-05-03 10:51:20 51°9.898 2°34.754 12.132718 3.964074 34.321957 35.287811
2004-05-03 10:52:20 51°9.9 2°34.839 12.124091 3.962915 34.320846 39.130683
2004-05-03 10:53:20 51°9.889 2°34.909 12.113827 3.962071 34.318464 38.355366
2004-05-03 10:54:20 51°9.874 2°34.961 12.108467 3.961966 34.326823 37.613759
2004-05-03 10:55:20 51°9.857 2°35.003 12.114417 3.962282 34.329881 35.085554
2004-05-03 10:56:20 51°9.847 2°35.029 12.220383 3.966604 34.321893 27.939161
2004-05-03 10:57:20 51°9.845 2°35.04 12.281797 3.973561 34.314198 25.343537
2004-05-03 10:58:20 51°9.852 2°35.033 12.300822 3.977672 34.312881 24.63564
2004-05-03 10:59:20 51°9.846 2°35.019 12.31889 3.979147 34.314894 25.242409
2004-05-03 11:00:21 51°9.837 2°34.997 12.347635 3.980623 34.30759 25.107571
2004-05-03 11:01:20 51°9.834 2°34.966 12.355012 3.982415 34.306918 23.961452
2004-05-03 11:02:21 51°9.83 2°34.93 12.368722 3.982626 34.300354 24.669349
2004-05-03 11:03:20 51°9.822 2°34.897 12.374378 3.984207 34.29981 23.860324
2004-05-03 11:04:21 51°9.807 2°34.865 12.366641 3.984101 34.303805 23.52323
2004-05-03 11:05:20 51°9.795 2°34.829 12.346685 3.983574 34.309474 23.759195
2004-05-03 11:06:21 51°9.787 2°34.785 12.324595 3.982204 34.314917 25.141281
2004-05-03 11:07:20 51°9.784 2°34.739 12.323735 3.981361 34.316838 25.073862
2004-05-03 11:08:21 51°9.782 2°34.692 12.333559 3.981256 34.315107 23.118717
2004-05-03 11:09:21 51°9.77 2°34.652 12.296429 3.982942 34.329182 20.65793
2004-05-03 11:10:20 51°9.745 2°34.627 12.235255 3.978199 34.333029 18.567947
2004-05-03 11:11:21 51°9.716 2°34.605 12.204828 3.972718 34.335544 19.511811
2004-05-03 11:12:20 51°9.696 2°34.575 12.244729 3.972928 34.328945 17.388118
2004-05-03 11:13:20 51°9.676 2°34.535 12.227184 3.97472 34.332561 15.500392
2004-05-03 11:14:21 51°9.644 2°34.404 12.206188 3.973772 34.3342 15.432973
2004-05-03 11:15:20 51°9.62 2°34.173 12.13122 3.969028 34.331616 16.006033
2004-05-03 11:16:20 51°9.639 2°33.986 12.071757 3.962177 34.329583 23.590648
2004-05-03 11:17:20 51°9.696 2°33.962 12.026203 3.956274 34.322303 28.141418
2004-05-03 11:18:21 51°9.756 2°33.991 11.987626 3.951531 34.315407 31.849452
2004-05-03 11:19:20 51°9.814 2°34.037 11.970697 3.946682 34.298075 27.669486
2004-05-03 11:20:20 51°9.858 2°34.112 11.955128 3.94995 34.342809 24.905315
2004-05-03 11:21:21 51°9.889 2°34.198 11.942288 3.948896 34.347087 24.197418
2004-05-03 11:22:21 51°9.916 2°34.281 11.9386 3.948369 34.349227 25.006443
2004-05-03 11:23:21 51°9.943 2°34.364 11.937644 3.948053 34.349061 25.950306
2004-05-03 11:24:20 51°9.969 2°34.443 11.936232 3.948158 34.349358 24.972734
2004-05-03 11:25:20 51°9.995 2°34.521 11.93268 3.94742 34.343647 26.793042
2004-05-03 11:26:20 51°10.022 2°34.6 11.932907 3.946999 34.339553 28.984153
2004-05-03 11:27:21 51°10.05 2°34.679 11.939465 3.946788 34.338958 30.501076
2004-05-03 11:28:20 51°10.076 2°34.757 11.955811 3.947631 34.33336 29.590922
2004-05-03 11:29:21 51°10.101 2°34.84 11.968148 3.948263 34.332246 30.635913
2004-05-03 11:30:21 51°10.123 2°34.923 11.97898 3.949001 34.326358 32.961862
2004-05-03 11:31:21 51°10.141 2°35.008 11.991358 3.949844 34.322946 35.961999
2004-05-03 11:32:20 51°10.157 2°35.094 12.011558 3.951004 34.317536 41.490341
2004-05-03 11:33:21 51°10.173 2°35.179 12.033934 3.952269 34.316046 49.108665
2004-05-03 11:34:21 51°10.191 2°35.265 12.057348 3.954166 34.31201 49.614306
2004-05-03 11:35:21 51°10.208 2°35.351 12.074074 3.956169 34.312613 47.591742
2004-05-03 11:36:20 51°10.224 2°35.434 12.093295 3.95775 34.312749 44.659024
2004-05-03 11:37:21 51°10.24 2°35.52 12.099701 3.95912 34.315177 41.52405
2004-05-03 11:38:21 51°10.254 2°35.606 12.097111 3.960069 34.3193 41.321794
2004-05-03 11:39:21 51°10.27 2°35.693 12.107514 3.960912 34.326012 39.130683
2004-05-03 11:40:21 51°10.285 2°35.774 12.112737 3.962072 34.328564 36.197965
2004-05-03 11:41:21 51°10.301 2°35.853 12.149607 3.963758 34.33116 31.478648
2004-05-03 11:42:21 51°10.316 2°35.93 12.194849 3.967974 34.331524 28.849315
2004-05-03 11:43:20 51°10.341 2°36.016 12.24083 3.971874 34.328129 28.040289
2004-05-03 11:44:20 51°10.404 2°36.068 12.280755 3.975458 34.324581 26.118853
2004-05-03 11:45:21 51°10.452 2°36.028 12.284697 3.978199 34.322978 20.523093
2004-05-03 11:46:21 51°10.427 2°35.982 12.205281 3.975564 34.332064 20.590512
2004-05-03 11:47:21 51°10.363 2°35.948 12.156098 3.969555 34.330943 24.129999
2004-05-03 11:48:20 51°10.286 2°35.922 12.207232 3.96808 34.331821 24.028871
2004-05-03 11:49:21 51°10.231 2°35.872 12.297063 3.974615 34.325076 21.905178
2004-05-03 11:50:21 51°10.277 2°35.812 12.308657 3.980096 34.321156 19.073589
2004-05-03 11:51:21 51°10.359 2°35.875 12.240694 3.978831 34.330504 19.343264
2004-05-03 11:52:21 51°10.457 2°35.982 12.18818 3.972612 34.336686 21.669212
2004-05-03 11:53:21 51°10.581 2°36.179 12.146475 3.968291 34.334577 21.837759
2004-05-03 11:54:21 51°10.699 2°36.452 12.152013 3.964812 34.318995 36.46764
2004-05-03 11:55:21 51°10.829 2°36.739 12.162452 3.965339 34.314 31.883161
2004-05-03 11:56:21 51°10.963 2°37.039 12.189133 3.966077 34.307444 35.119264
2004-05-03 11:57:21 51°11.1 2°37.341 12.215032 3.968712 34.304098 32.48993
2004-05-03 11:58:21 51°11.218 2°37.672 12.223149 3.971242 34.310525 31.175264
2004-05-03 11:59:21 51°11.335 2°38.001 12.224328 3.971347 34.312979 34.815879
2004-05-03 12:00:21 51°11.436 2°38.282 12.220338 3.972085 34.317218 31.95058
2004-05-03 12:01:20 51°11.533 2°38.554 12.226958 3.97198 34.316921 27.905452
2004-05-03 12:02:21 51°11.633 2°38.835 12.215667 3.972296 34.322846 25.545794
2004-05-03 12:03:21 51°11.732 2°39.107 12.204193 3.971664 34.326815 25.309828
2004-05-03 12:04:20 51°11.829 2°39.372 12.215576 3.971242 34.329223 26.927879
2004-05-03 12:05:20 51°11.928 2°39.642 12.274231 3.973983 34.328323 21.905178
2004-05-03 12:06:26 51°12.037 2°39.939 12.347273 3.979991 34.313688 15.399264
2004-05-03 12:07:26 51°12.136 2°40.206 12.389396 3.981782 34.285095 17.051024
2004-05-03 12:08:26 51°12.234 2°40.474 12.44496 3.978935 34.217065 27.298683
2004-05-03 12:10:35 51°12.444 2°41.05 12.54494 3.975771 34.089453 54.704426
2004-05-03 12:11:36 51°12.543 2°41.322 12.54494 3.972397 34.03457 48.83899
2004-05-03 12:12:36 51°12.639 2°41.591 12.511133 3.961328 33.944975 49.209794
2004-05-03 12:13:34 51°12.727 2°41.854 12.49971 3.950681 33.853751 53.254922
2004-05-03 12:14:36 51°12.823 2°42.133 12.456844 3.937399 33.749247 68.221896
2004-05-03 12:15:36 51°12.912 2°42.406 12.452371 3.927701 33.681046 68.188187
2004-05-03 12:16:36 51°12.999 2°42.682 12.488059 3.923379 33.632726 68.221896
2004-05-03 12:17:36 51°13.088 2°42.96 12.506709 3.922746 33.61061 68.221896
2004-05-03 12:18:36 51°13.175 2°43.239 12.535102 3.925908 33.605221 59.423742
2004-05-03 12:19:36 51°13.254 2°43.523 12.577286 3.927489 33.596612 52.075093
2004-05-03 12:20:36 51°13.331 2°43.805 12.588471 3.927278 33.57024 52.378477
2004-05-03 12:21:36 51°13.407 2°44.089 12.560461 3.920215 33.50501 62.525007
2004-05-03 12:22:36 51°13.482 2°44.373 12.498943 3.90999 33.438072 68.221896
2004-05-03 12:23:36 51°13.555 2°44.658 12.406988 3.895971 33.361177 68.120768
2004-05-03 12:24:35 51°13.625 2°44.942 12.320701 3.875839 33.258927 68.053349
2004-05-03 12:25:36 51°13.697 2°45.236 12.252253 3.859186 33.188253 68.053349
2004-05-03 12:26:35 51°13.761 2°45.524 12.247494 3.853599 33.153436 68.120768
2004-05-03 12:27:35 51°13.78 2°45.831 12.254746 3.852335 33.148245 68.01964
2004-05-03 12:28:34 51°13.793 2°46.141 12.450021 3.866037 33.21088 68.087059
2004-05-03 12:29:34 51°13.806 2°46.457 12.581435 3.914312 33.475812 68.424153
2004-05-03 12:30:36 51°13.823 2°46.782 12.565964 3.922007 33.524172 62.626136
2004-05-03 12:31:36 51°13.84 2°47.094 12.51777 3.909674 33.442686 68.221896
2004-05-03 12:32:36 51°13.857 2°47.404 12.531943 3.900292 33.369156 68.120768
2004-05-03 12:33:36 51°13.871 2°47.711 12.501787 3.894811 33.31481 68.120768
2004-05-03 12:34:36 51°13.888 2°48.018 12.555904 3.88543 33.239174 68.120768
2004-05-03 12:35:36 51°13.909 2°48.255 12.628232 3.887853 33.183078 68.120768
2004-05-03 12:36:36 51°13.948 2°48.376 12.658736 3.889328 33.147022 68.154477
2004-05-03 12:37:36 51°13.974 2°48.465 12.638732 3.885744 33.111613 68.154477
2004-05-03 12:38:36 51°13.999 2°48.553 12.598571 3.878576 33.071576 68.120768
2004-05-03 12:39:36 51°14.024 2°48.637 12.584322 3.871514 33.032496 68.120768
2004-05-03 12:40:36 51°14.051 2°48.713 12.570566 3.866982 32.996238 68.120768
2004-05-03 12:41:36 51°14.079 2°48.783 12.562401 3.863504 32.972046 68.087059
2004-05-03 12:42:36 51°14.108 2°48.853 12.54124 3.859709 32.951667 68.087059
2004-05-03 12:43:36 51°14.137 2°48.921 12.539615 3.857074 32.93821 68.053349
2004-05-03 12:44:36 51°14.167 2°48.987 12.545346 3.85602 32.926816 68.087059
2004-05-03 12:45:34 51°14.196 2°49.05 12.555002 3.856231 32.922677 68.087059
2004-05-03 12:46:36 51°14.228 2°49.113 12.558882 3.855809 32.912526 68.120768
2004-05-03 12:47:36 51°14.261 2°49.175 12.557393 3.854966 32.903825 68.087059
2004-05-03 12:48:36 51°14.294 2°49.233 12.539254 3.85349 32.895929 68.053349
2004-05-03 12:49:36 51°14.329 2°49.29 12.531221 3.851277 32.88715 68.053349
2004-05-03 12:50:36 51°14.363 2°49.349 12.526527 3.850223 32.88326 68.120768
2004-05-03 12:51:35 51°14.394 2°49.409 12.513255 3.848326 32.874074 68.120768
2004-05-03 12:52:34 51°14.424 2°49.473 12.510276 3.846007 32.857461 68.053349
2004-05-03 12:53:36 51°14.455 2°49.542 12.51172 3.845902 32.855094 68.120768
2004-05-03 12:54:36 51°14.485 2°49.609 12.501471 3.844215 32.84927 68.053349
2004-05-03 12:55:36 51°14.515 2°49.674 12.503368 3.843583 32.841205 68.053349
2004-05-03 12:56:36 51°14.539 2°49.744 12.487201 3.841791 32.830965 68.087059
2004-05-03 12:57:35 51°14.562 2°49.815 12.480381 3.839367 32.81879 68.053349
2004-05-03 12:58:36 51°14.591 2°49.89 12.500117 3.839261 32.813016 68.053349
2004-05-03 12:59:36 51°14.62 2°49.954 12.497498 3.839051 32.803516 68.087059
2004-05-03 13:00:36 51°14.649 2°50.01 12.475277 3.83747 32.793914 68.053349
2004-05-03 13:01:36 51°14.677 2°50.058 12.451287 3.833992 32.783953 68.087059
2004-05-03 13:02:36 51°14.703 2°50.099 12.431672 3.831357 32.776568 68.053349
2004-05-03 13:03:36 51°14.731 2°50.136 12.412595 3.828511 32.765805 68.053349
2004-05-03 13:04:36 51°14.827 2°50.25 12.395501 3.825982 32.75805 68.053349
2004-05-03 13:05:36 51°14.951 2°50.504 12.355691 3.822082 32.741994 68.053349
2004-05-03 13:06:36 51°15.043 2°50.848 12.286916 3.811016 32.675913 68.053349
2004-05-03 13:07:36 51°15.024 2°51.233 12.350668 3.801003 32.617072 68.053349
2004-05-03 13:08:36 51°14.998 2°51.615 12.319343 3.804375 32.592805 68.087059
2004-05-03 13:09:36 51°14.981 2°52.001 12.462944 3.797735 32.511173 68.087059
2004-05-03 13:10:35 51°14.966 2°52.38 12.580082 3.788143 32.361807 68.087059
2004-05-03 13:11:36 51°14.895 2°52.742 12.555814 3.784241 32.198928 68.087059
2004-05-03 13:12:36 51°14.806 2°53.094 12.573678 3.773914 32.176376 68.053349
2004-05-03 13:13:36 51°14.721 2°53.448 12.582698 3.789195 32.235844 68.053349
2004-05-03 13:14:36 51°14.647 2°53.809 12.582743 3.809853 32.45305 68.01964
2004-05-03 13:15:36 51°14.573 2°54.178 12.640985 3.814175 32.50885 68.087059
2004-05-03 13:16:36 51°14.513 2°54.552 12.691252 3.807639 32.403211 68.053349
2004-05-03 13:17:36 51°14.439 2°54.9 12.712635 3.801315 32.299879 68.01964
2004-05-03 13:18:36 51°14.324 2°55.157 13.061006 3.797623 32.087481 68.01964
2004-05-03 13:19:36 51°14.216 2°55.348 12.986995 3.69044 30.984454 68.01964